createdAt,value
2022-11-03T00:01:57.096Z,7.34
2022-11-03T00:04:23.838Z,7.37
2022-11-03T00:06:54.822Z,7.31
2022-11-03T00:09:22.516Z,7.34
2022-11-03T00:11:53.155Z,7.48
2022-11-03T00:14:19.909Z,7.46
2022-11-03T00:16:46.665Z,7.52
2022-11-03T00:19:17.427Z,7.53
2022-11-03T00:21:44.869Z,7.59
2022-11-03T00:24:11.812Z,7.54
2022-11-03T00:26:39.113Z,7.52
2022-11-03T00:29:11.250Z,7.55
2022-11-03T00:31:40.128Z,7.59
2022-11-03T00:34:07.293Z,7.60
2022-11-03T00:36:39.136Z,7.48
2022-11-03T00:39:06.337Z,7.59
2022-11-03T00:41:32.850Z,7.60
2022-11-03T00:43:59.568Z,7.53
2022-11-03T00:46:26.862Z,7.58
2022-11-03T00:48:53.243Z,7.49
2022-11-03T00:51:25.397Z,7.50
2022-11-03T00:54:00.240Z,7.53
2022-11-03T00:56:41.122Z,7.58
2022-11-03T00:59:09.856Z,7.56
2022-11-03T01:01:45.319Z,7.54
2022-11-03T01:04:32.475Z,7.44
2022-11-03T01:07:00.347Z,7.51
2022-11-03T01:09:34.739Z,7.48
2022-11-03T01:12:05.194Z,7.50
2022-11-03T01:14:35.868Z,7.55
2022-11-03T01:17:08.158Z,7.49
2022-11-03T01:19:34.609Z,7.44
2022-11-03T01:22:01.022Z,7.45
2022-11-03T01:24:27.499Z,7.50
2022-11-03T01:26:53.921Z,7.47
2022-11-03T01:29:20.654Z,7.50
2022-11-03T01:31:47.632Z,7.50
2022-11-03T01:34:16.527Z,7.57
2022-11-03T01:36:43.961Z,7.59
2022-11-03T01:39:12.340Z,7.57
2022-11-03T01:41:38.978Z,7.48
2022-11-03T01:44:08.337Z,7.56
2022-11-03T01:46:46.178Z,7.54
2022-11-03T01:49:41.673Z,7.60
2022-11-03T01:52:16.028Z,7.57
2022-11-03T01:54:44.454Z,7.67
2022-11-03T01:57:17.225Z,7.65
2022-11-03T01:59:46.037Z,7.68
2022-11-03T02:02:12.891Z,7.63
2022-11-03T02:04:39.858Z,7.59
2022-11-03T02:09:55.810Z,7.65
2022-11-03T02:12:22.888Z,7.65
2022-11-03T02:14:54.589Z,7.66
2022-11-03T02:17:23.671Z,7.64
2022-11-03T02:20:04.687Z,7.75
2022-11-03T02:22:52.083Z,7.72
2022-11-03T02:25:39.962Z,7.64
2022-11-03T02:28:06.553Z,7.70
2022-11-03T02:30:43.771Z,7.68
2022-11-03T02:33:28.256Z,7.65
2022-11-03T02:36:07.066Z,7.66
2022-11-03T02:38:38.136Z,7.65
2022-11-03T02:41:08.478Z,7.65
2022-11-03T02:43:35.172Z,7.71
2022-11-03T02:46:05.055Z,7.71
2022-11-03T02:48:32.488Z,7.73
2022-11-03T02:50:58.935Z,7.82
2022-11-03T02:53:28.889Z,7.78
2022-11-03T02:56:06.511Z,7.74
2022-11-03T02:58:57.304Z,7.78
2022-11-03T03:01:32.544Z,7.78
2022-11-03T03:04:03.325Z,7.84
2022-11-03T03:06:42.110Z,7.78
2022-11-03T03:09:15.688Z,7.74
2022-11-03T03:11:44.407Z,7.72
2022-11-03T03:14:13.540Z,7.73
2022-11-03T03:16:52.786Z,7.65
2022-11-03T03:19:30.760Z,7.69
2022-11-03T03:22:01.276Z,7.64
2022-11-03T03:24:37.470Z,7.63
2022-11-03T03:27:11.401Z,7.65
2022-11-03T03:29:54.492Z,7.63
2022-11-03T03:32:24.284Z,7.58
2022-11-03T03:34:53.202Z,7.51
2022-11-03T03:37:22.944Z,7.55
2022-11-03T03:39:55.089Z,7.55
2022-11-03T03:42:24.918Z,7.56
2022-11-03T03:44:52.850Z,7.51
2022-11-03T03:47:24.355Z,7.50
2022-11-03T03:49:51.038Z,7.51
2022-11-03T03:52:17.864Z,7.56
2022-11-03T03:54:44.386Z,7.54
2022-11-03T03:57:16.082Z,7.49
2022-11-03T03:59:45.633Z,7.51
2022-11-03T04:02:13.156Z,7.44
2022-11-03T04:04:39.690Z,7.51
2022-11-03T04:07:25.318Z,7.49
2022-11-03T04:09:52.063Z,7.52
2022-11-03T04:12:37.042Z,7.48
2022-11-03T04:15:22.957Z,7.53
2022-11-03T04:18:08.746Z,7.61
2022-11-03T04:20:53.824Z,7.54
2022-11-03T04:23:20.341Z,7.54
2022-11-03T04:25:57.007Z,7.62
2022-11-03T04:28:25.548Z,7.62
2022-11-03T04:30:54.687Z,7.59
2022-11-03T04:33:24.462Z,7.52
2022-11-03T04:35:59.226Z,7.54
2022-11-03T04:38:27.226Z,7.48
2022-11-03T04:40:58.449Z,7.52
2022-11-03T04:43:34.342Z,7.53
2022-11-03T04:46:01.283Z,7.55
2022-11-03T04:48:29.332Z,7.52
2022-11-03T04:50:59.119Z,7.43
2022-11-03T04:53:32.765Z,7.43
2022-11-03T04:56:04.437Z,7.40
2022-11-03T04:58:35.679Z,7.43
2022-11-03T05:01:03.509Z,7.36
2022-11-03T05:03:33.918Z,7.31
2022-11-03T05:06:27.457Z,7.43
2022-11-03T05:09:00.349Z,7.48
2022-11-03T05:11:35.180Z,7.39
2022-11-03T05:14:22.977Z,7.41
2022-11-03T05:16:51.647Z,7.36
2022-11-03T05:19:22.532Z,7.34
2022-11-03T05:21:50.716Z,7.36
2022-11-03T05:24:19.401Z,7.37
2022-11-03T05:26:45.923Z,7.33
2022-11-03T05:29:23.956Z,7.42
2022-11-03T05:31:55.480Z,7.42
2022-11-03T05:34:30.068Z,7.37
2022-11-03T05:37:30.813Z,7.32
2022-11-03T05:40:10.460Z,7.37
2022-11-03T05:42:41.753Z,7.34
2022-11-03T05:45:23.058Z,7.46
2022-11-03T05:47:53.453Z,7.39
2022-11-03T05:50:28.069Z,7.36
2022-11-03T05:53:00.309Z,7.36
2022-11-03T05:55:33.238Z,7.32
2022-11-03T05:58:05.311Z,7.39
2022-11-03T06:00:37.603Z,7.39
2022-11-03T06:03:05.052Z,7.34
2022-11-03T06:05:33.561Z,7.32
2022-11-03T06:08:03.855Z,7.35
2022-11-03T06:10:41.916Z,7.40
2022-11-03T06:13:16.228Z,7.44
2022-11-03T06:15:45.624Z,7.47
2022-11-03T06:18:18.797Z,7.46
2022-11-03T06:20:52.618Z,7.45
2022-11-03T06:23:20.803Z,7.48
2022-11-03T06:25:50.321Z,7.52
2022-11-03T06:28:24.820Z,7.52
2022-11-03T06:30:52.268Z,7.50
2022-11-03T06:33:21.941Z,7.48
2022-11-03T06:35:51.257Z,7.49
2022-11-03T06:38:25.638Z,7.50
2022-11-03T06:40:53.365Z,7.50
2022-11-03T06:43:22.827Z,7.52
2022-11-03T06:45:52.137Z,7.51
2022-11-03T06:48:25.045Z,7.51
2022-11-03T06:50:52.601Z,7.49
2022-11-03T06:53:29.543Z,7.58
2022-11-03T06:55:56.261Z,7.67
2022-11-03T06:58:37.096Z,7.57
2022-11-03T07:01:12.627Z,7.63
2022-11-03T07:03:39.309Z,7.69
2022-11-03T07:06:17.747Z,7.84
2022-11-03T07:08:56.497Z,7.75
2022-11-03T07:11:25.815Z,7.78
2022-11-03T07:13:56.578Z,7.74
2022-11-03T07:16:33.493Z,7.78
2022-11-03T07:19:03.181Z,7.80
2022-11-03T07:22:00.987Z,7.86
2022-11-03T07:24:31.633Z,7.94
2022-11-03T07:27:20.893Z,7.99
2022-11-03T07:29:49.505Z,8.00
2022-11-03T07:32:19.577Z,8.06
2022-11-03T07:34:47.594Z,8.27
2022-11-03T07:37:18.587Z,8.18
2022-11-03T07:39:45.247Z,8.19
2022-11-03T07:42:22.407Z,8.20
2022-11-03T07:44:50.177Z,8.33
2022-11-03T07:47:20.388Z,8.24
2022-11-03T07:49:47.477Z,8.20
2022-11-03T07:52:21.174Z,8.25
2022-11-03T07:54:47.816Z,8.35
2022-11-03T07:57:26.267Z,8.39
2022-11-03T08:00:20.977Z,8.49
2022-11-03T08:02:56.285Z,8.54
2022-11-03T08:05:22.765Z,8.58
2022-11-03T08:07:49.267Z,8.63
2022-11-03T08:10:15.969Z,8.68
2022-11-03T08:12:42.402Z,8.70
2022-11-03T08:15:09.391Z,8.76
2022-11-03T08:17:35.841Z,8.84
2022-11-03T08:20:02.280Z,8.80
2022-11-03T08:22:28.734Z,8.88
2022-11-03T08:24:55.161Z,9.02
2022-11-03T08:27:21.691Z,9.03
2022-11-03T08:29:48.145Z,9.06
2022-11-03T08:32:14.604Z,9.20
2022-11-03T08:34:41.050Z,9.28
2022-11-03T08:37:07.447Z,9.62
2022-11-03T08:39:36.249Z,9.61
2022-11-03T08:42:02.773Z,9.64
2022-11-03T08:44:29.191Z,9.42
2022-11-03T08:46:55.646Z,9.62
2022-11-03T08:49:22.081Z,9.35
2022-11-03T08:51:48.517Z,9.50
2022-11-03T08:54:14.934Z,9.66
2022-11-03T08:56:41.363Z,9.78
2022-11-03T08:59:07.755Z,10.08
2022-11-03T09:01:34.265Z,10.08
2022-11-03T09:04:00.888Z,10.22
2022-11-03T09:06:27.341Z,10.02
2022-11-03T09:11:40.185Z,10.25
2022-11-03T09:14:06.658Z,10.25
2022-11-03T09:16:33.054Z,10.20
2022-11-03T09:18:59.445Z,10.27
2022-11-03T09:21:25.897Z,9.99
2022-11-03T09:23:52.318Z,10.01
2022-11-03T09:26:18.984Z,10.13
2022-11-03T09:28:45.517Z,10.29
2022-11-03T09:31:11.916Z,10.64
2022-11-03T09:33:38.409Z,10.79
2022-11-03T09:36:05.085Z,11.04
2022-11-03T09:38:31.481Z,10.96
2022-11-03T09:40:58.351Z,11.06
2022-11-03T09:43:24.941Z,10.95
2022-11-03T09:45:51.533Z,11.18
2022-11-03T09:48:18.029Z,11.25
2022-11-03T09:50:53.729Z,11.38
2022-11-03T09:53:21.366Z,11.21
2022-11-03T09:55:47.816Z,11.16
2022-11-03T09:58:16.887Z,11.35
2022-11-03T10:00:45.087Z,11.30
2022-11-03T10:03:13.264Z,11.23
2022-11-03T10:05:40.562Z,11.27
2022-11-03T10:08:18.487Z,11.20
2022-11-03T10:10:49.657Z,10.97
2022-11-03T10:13:33.422Z,11.20
2022-11-03T10:16:01.935Z,11.40
2022-11-03T10:18:28.866Z,11.31
2022-11-03T10:20:55.762Z,11.54
2022-11-03T10:23:22.356Z,11.45
2022-11-03T10:25:48.890Z,11.47
2022-11-03T10:28:21.014Z,11.23
2022-11-03T10:31:11.727Z,11.55
2022-11-03T10:33:52.342Z,11.46
2022-11-03T10:36:18.898Z,11.50
2022-11-03T10:38:45.702Z,11.66
2022-11-03T10:41:17.691Z,11.71
2022-11-03T10:44:05.808Z,12.16
2022-11-03T10:49:20.611Z,12.29
2022-11-03T10:51:50.302Z,12.17
2022-11-03T10:54:18.662Z,11.98
2022-11-03T10:56:46.265Z,12.09
2022-11-03T10:59:19.328Z,12.07
2022-11-03T11:01:46.428Z,12.00
2022-11-03T11:04:20.648Z,12.36
2022-11-03T11:06:47.461Z,12.64
2022-11-03T11:09:25.791Z,12.30
2022-11-03T11:12:15.132Z,12.28
2022-11-03T11:14:53.921Z,12.02
2022-11-03T11:17:52.667Z,12.44
2022-11-03T11:20:32.753Z,12.47
2022-11-03T11:23:26.861Z,12.69
2022-11-03T11:26:08.663Z,12.74
2022-11-03T11:28:45.997Z,12.47
2022-11-03T11:31:30.087Z,12.78
2022-11-03T11:34:18.365Z,13.09
2022-11-03T11:36:47.346Z,13.23
2022-11-03T11:39:22.977Z,13.64
2022-11-03T11:42:04.637Z,13.08
2022-11-03T11:44:43.191Z,13.45
2022-11-03T11:47:24.827Z,13.53
2022-11-03T11:50:06.500Z,13.11
2022-11-03T11:52:34.777Z,13.22
2022-11-03T11:55:02.925Z,13.22
2022-11-03T11:57:32.209Z,13.17
2022-11-03T11:59:58.773Z,13.08
2022-11-03T12:02:29.614Z,13.26
2022-11-03T12:05:04.186Z,13.28
2022-11-03T12:07:37.095Z,13.38
2022-11-03T12:10:08.828Z,13.11
2022-11-03T12:12:35.479Z,13.07
2022-11-03T12:15:02.096Z,13.16
2022-11-03T12:17:28.459Z,13.07
2022-11-03T12:19:55.303Z,12.80
2022-11-03T12:22:24.897Z,12.87
2022-11-03T12:24:57.610Z,12.99
2022-11-03T12:27:24.037Z,12.93
2022-11-03T12:29:51.595Z,12.98
2022-11-03T12:32:32.587Z,12.82
2022-11-03T12:34:59.809Z,12.75
2022-11-03T12:37:26.250Z,12.72
2022-11-03T12:39:52.661Z,12.83
2022-11-03T12:42:20.053Z,12.74
2022-11-03T12:44:46.631Z,12.59
2022-11-03T12:47:13.072Z,12.66
2022-11-03T12:49:39.477Z,12.76
2022-11-03T12:52:08.264Z,12.76
2022-11-03T12:54:35.250Z,12.61
2022-11-03T12:57:01.716Z,12.60
2022-11-03T12:59:28.418Z,12.47
2022-11-03T13:01:55.096Z,12.36
2022-11-03T13:04:21.581Z,12.40
2022-11-03T13:06:48.157Z,12.65
2022-11-03T13:09:14.673Z,12.77
2022-11-03T13:11:59.786Z,12.70
2022-11-03T13:14:26.668Z,13.00
2022-11-03T13:16:53.208Z,13.36
2022-11-03T13:19:19.800Z,13.16
2022-11-03T13:21:46.308Z,13.59
2022-11-03T13:24:12.724Z,13.56
2022-11-03T13:26:39.180Z,14.02
2022-11-03T13:29:05.622Z,13.85
2022-11-03T13:31:32.297Z,14.00
2022-11-03T13:33:58.723Z,13.68
2022-11-03T13:36:25.216Z,13.37
2022-11-03T13:38:51.679Z,13.81
2022-11-03T13:41:18.106Z,13.89
2022-11-03T13:43:44.494Z,13.84
2022-11-03T13:46:12.800Z,13.45
2022-11-03T13:51:25.715Z,13.56
2022-11-03T13:59:25.253Z,13.38
2022-11-03T14:07:07.092Z,13.32
2022-11-03T14:09:33.610Z,13.14
2022-11-03T14:12:18.626Z,12.95
2022-11-03T14:14:45.262Z,12.90
2022-11-03T14:17:12.303Z,12.87
2022-11-03T14:19:44.739Z,12.81
2022-11-03T14:22:12.726Z,12.97
2022-11-03T14:24:39.135Z,12.95
2022-11-03T14:27:05.541Z,12.98
2022-11-03T14:29:31.990Z,13.05
2022-11-03T14:31:58.406Z,12.93
2022-11-03T14:34:24.925Z,12.84
2022-11-03T14:36:51.450Z,12.77
2022-11-03T14:39:17.907Z,12.86
2022-11-03T14:42:03.017Z,12.65
2022-11-03T14:44:30.842Z,12.61
2022-11-03T14:46:57.737Z,12.51
2022-11-03T14:49:24.196Z,12.47
2022-11-03T14:51:51.527Z,12.45
2022-11-03T14:54:18.013Z,12.52
2022-11-03T14:56:44.415Z,12.29
2022-11-03T14:59:10.880Z,12.12
2022-11-03T15:01:38.680Z,12.12
2022-11-03T15:04:05.406Z,11.93
2022-11-03T15:06:31.853Z,12.02
2022-11-03T15:08:58.348Z,12.05
2022-11-03T15:11:25.206Z,11.86
2022-11-03T15:13:52.795Z,11.85
2022-11-03T15:16:19.465Z,11.83
2022-11-03T15:18:46.150Z,11.73
2022-11-03T15:21:13.341Z,11.71
2022-11-03T15:26:26.256Z,11.61
2022-11-03T15:28:52.650Z,11.60
2022-11-03T15:31:19.203Z,11.61
2022-11-03T15:33:45.611Z,11.58
2022-11-03T15:36:12.241Z,11.59
2022-11-03T15:38:38.765Z,11.56
2022-11-03T15:41:17.349Z,11.45
2022-11-03T15:43:48.427Z,11.33
2022-11-03T15:46:18.462Z,11.33
2022-11-03T15:48:45.843Z,11.28
2022-11-03T15:51:12.337Z,11.31
2022-11-03T15:53:39.437Z,11.26
2022-11-03T15:56:06.696Z,11.24
2022-11-03T15:58:34.371Z,11.15
2022-11-03T16:01:04.365Z,11.12
2022-11-03T16:03:32.072Z,11.27
2022-11-03T16:05:58.832Z,11.19
2022-11-03T16:08:25.538Z,11.26
2022-11-03T16:10:57.651Z,11.12
2022-11-03T16:13:25.456Z,11.12
2022-11-03T16:15:54.285Z,11.06
2022-11-03T16:18:21.054Z,11.04
2022-11-03T16:20:47.502Z,11.04
2022-11-03T16:23:13.991Z,11.08
2022-11-03T16:25:41.046Z,11.14
2022-11-03T16:28:07.762Z,11.21
2022-11-03T16:30:38.324Z,11.15
2022-11-03T16:33:05.135Z,11.20
2022-11-03T16:35:31.568Z,11.18
2022-11-03T16:37:58.033Z,10.95
2022-11-03T16:40:24.746Z,10.91
2022-11-03T16:42:51.376Z,10.92
2022-11-03T16:45:21.027Z,10.81
2022-11-03T16:47:48.908Z,10.82
2022-11-03T16:50:18.388Z,10.73
2022-11-03T16:52:50.268Z,10.73
2022-11-03T16:55:18.681Z,10.66
2022-11-03T16:57:45.876Z,10.68
2022-11-03T17:00:17.603Z,10.63
2022-11-03T17:02:44.412Z,10.82
2022-11-03T17:05:13.445Z,10.88
2022-11-03T17:07:39.927Z,10.84
2022-11-03T17:10:07.650Z,10.80
2022-11-03T17:12:34.084Z,10.80
2022-11-03T17:15:00.510Z,10.81
2022-11-03T17:17:26.912Z,10.94
2022-11-03T17:19:53.417Z,10.77
2022-11-03T17:22:22.109Z,10.80
2022-11-03T17:24:48.962Z,10.68
2022-11-03T17:27:23.035Z,10.60
2022-11-03T17:29:54.209Z,10.57
2022-11-03T17:32:29.449Z,10.50
2022-11-03T17:34:57.260Z,10.55
2022-11-03T17:37:24.947Z,10.52
2022-11-03T17:39:51.574Z,10.49
2022-11-03T17:42:21.268Z,10.42
2022-11-03T17:44:52.759Z,10.38
2022-11-03T17:47:20.593Z,10.21
2022-11-03T17:49:48.727Z,10.16
2022-11-03T17:52:24.864Z,10.36
2022-11-03T17:54:57.342Z,10.31
2022-11-03T17:57:24.659Z,10.19
2022-11-03T17:59:53.820Z,10.08
2022-11-03T18:02:28.760Z,9.97
2022-11-03T18:05:03.134Z,9.97
2022-11-03T18:07:29.820Z,9.96
2022-11-03T18:09:56.386Z,9.98
2022-11-03T18:12:49.597Z,9.93
2022-11-03T18:15:23.047Z,9.96
2022-11-03T18:17:49.559Z,9.98
2022-11-03T18:20:19.749Z,9.86
2022-11-03T18:22:46.500Z,9.98
2022-11-03T18:25:18.156Z,10.04
2022-11-03T18:27:44.911Z,10.05
2022-11-03T18:30:13.392Z,10.10
2022-11-03T18:32:45.273Z,10.07
2022-11-03T18:35:20.105Z,10.13
2022-11-03T18:37:47.247Z,10.15
2022-11-03T18:40:15.308Z,10.16
2022-11-03T18:42:41.907Z,10.19
2022-11-03T18:45:13.214Z,10.17
2022-11-03T18:47:40.182Z,10.15
2022-11-03T18:50:07.731Z,10.29
2022-11-03T18:52:40.296Z,10.27
2022-11-03T18:55:12.458Z,10.16
2022-11-03T18:57:39.666Z,10.29
2022-11-03T19:00:27.987Z,10.18
2022-11-03T19:02:54.467Z,10.25
2022-11-03T19:05:23.431Z,10.16
2022-11-03T19:07:50.565Z,10.03
2022-11-03T19:10:22.365Z,10.04
2022-11-03T19:12:48.792Z,10.09
2022-11-03T19:15:23.851Z,10.08
2022-11-03T19:17:54.528Z,9.97
2022-11-03T19:20:21.003Z,9.96
2022-11-03T19:22:47.577Z,10.09
2022-11-03T19:25:17.073Z,9.90
2022-11-03T19:27:46.880Z,9.92
2022-11-03T19:30:16.539Z,9.78
2022-11-03T19:32:48.748Z,9.89
2022-11-03T19:35:22.022Z,9.88
2022-11-03T19:37:50.888Z,9.79
2022-11-03T19:40:19.777Z,9.83
2022-11-03T19:42:48.561Z,9.99
2022-11-03T19:45:17.854Z,9.90
2022-11-03T19:48:22.715Z,9.92
2022-11-03T19:50:36.621Z,10.01
2022-11-03T19:53:06.814Z,9.87
2022-11-03T19:55:36.815Z,9.81
2022-11-03T19:58:18.607Z,9.83
2022-11-03T20:00:46.183Z,9.89
2022-11-03T20:03:13.064Z,9.85
2022-11-03T20:05:43.927Z,9.92
2022-11-03T20:08:19.665Z,9.91
2022-11-03T20:10:47.854Z,9.84
2022-11-03T20:13:16.775Z,9.98
2022-11-03T20:15:43.180Z,9.97
2022-11-03T20:18:12.084Z,9.96
2022-11-03T20:20:39.590Z,9.88
2022-11-03T20:23:07.668Z,9.73
2022-11-03T20:25:36.011Z,9.76
2022-11-03T20:28:16.252Z,9.89
2022-11-03T20:30:42.701Z,9.76
2022-11-03T20:33:17.633Z,9.74
2022-11-03T20:35:45.630Z,9.71
2022-11-03T20:38:14.438Z,9.68
2022-11-03T20:40:41.317Z,9.72
2022-11-03T20:43:21.091Z,9.58
2022-11-03T20:45:47.483Z,9.63
2022-11-03T20:48:13.939Z,9.50
2022-11-03T20:50:40.652Z,9.55
2022-11-03T20:53:19.702Z,9.48
2022-11-03T20:55:46.553Z,9.54
2022-11-03T20:58:15.981Z,9.52
2022-11-03T21:00:43.456Z,9.49
2022-11-03T21:03:31.461Z,9.61
2022-11-03T21:06:02.274Z,9.57
2022-11-03T21:08:28.899Z,9.50
2022-11-03T21:11:15.445Z,9.40
2022-11-03T21:13:42.050Z,9.39
2022-11-03T21:16:28.158Z,9.39
2022-11-03T21:19:13.109Z,9.51
2022-11-03T21:21:39.670Z,9.32
2022-11-03T21:24:06.424Z,9.47
2022-11-03T21:26:35.398Z,9.40
2022-11-03T21:29:01.818Z,9.39
2022-11-03T21:31:28.428Z,9.29
2022-11-03T21:33:55.052Z,9.33
2022-11-03T21:36:21.642Z,9.42
2022-11-03T21:38:48.166Z,9.55
2022-11-03T21:41:33.453Z,9.48
2022-11-03T21:44:14.833Z,9.32
2022-11-03T21:46:42.935Z,9.38
2022-11-03T21:49:28.545Z,9.26
2022-11-03T21:51:55.172Z,9.32
2022-11-03T21:54:21.728Z,9.41
2022-11-03T21:56:48.295Z,9.54
2022-11-03T21:59:15.019Z,9.36
2022-11-03T22:01:41.558Z,9.48
2022-11-03T22:04:08.228Z,9.42
2022-11-03T22:06:34.753Z,9.57
2022-11-03T22:09:01.184Z,9.44
2022-11-03T22:11:27.583Z,9.49
2022-11-03T22:13:59.505Z,9.63
2022-11-03T22:16:42.468Z,9.66
2022-11-03T22:19:30.551Z,9.65
2022-11-03T22:22:15.515Z,9.57
2022-11-03T22:25:00.674Z,9.63
2022-11-03T22:27:28.979Z,9.68
2022-11-03T22:30:14.057Z,9.75
2022-11-03T22:32:40.697Z,9.69
2022-11-03T22:35:27.316Z,9.95
2022-11-03T22:38:13.780Z,9.79
2022-11-03T22:40:59.941Z,9.86
2022-11-03T22:43:46.025Z,9.72
2022-11-03T22:46:14.226Z,9.91
2022-11-03T22:48:40.982Z,9.96
2022-11-03T22:51:09.214Z,9.93
2022-11-03T22:53:56.274Z,9.86
2022-11-03T22:56:24.827Z,9.77
2022-11-03T22:58:52.307Z,9.73
2022-11-03T23:01:21.081Z,9.95
2022-11-03T23:03:48.873Z,9.90
2022-11-03T23:06:19.828Z,9.94
2022-11-03T23:08:47.583Z,9.91
2022-11-03T23:11:25.509Z,10.04
2022-11-03T23:14:03.111Z,9.97
2022-11-03T23:16:35.310Z,9.97
2022-11-03T23:19:21.463Z,10.02
2022-11-03T23:21:50.386Z,10.09
2022-11-03T23:24:39.212Z,10.00
2022-11-03T23:27:09.195Z,10.00
2022-11-03T23:29:35.745Z,10.03
2022-11-03T23:32:02.487Z,9.96
2022-11-03T23:34:29.215Z,9.98
2022-11-03T23:36:55.871Z,10.01
2022-11-03T23:39:22.352Z,9.93
2022-11-03T23:41:50.284Z,10.00
2022-11-03T23:44:17.483Z,10.04
2022-11-03T23:47:02.933Z,10.00
2022-11-03T23:49:29.749Z,9.94
2022-11-03T23:51:56.191Z,9.87
2022-11-03T23:54:22.627Z,9.93
2022-11-03T23:57:07.641Z,9.90
2022-11-03T23:59:34.945Z,9.71
